Time;durP1;ratioP1;P1;durP2;ratioP2;P2;SDS_P1;SDS_P2;PMS_P1;PMS_P2;Temp;Humidity;BMP_temperature;BMP_pressure;BME280_temperature;BME280_humidity;BME280_pressure;Samples;Min_cycle;Max_cycle;Signal;HPM_P1;HPM_P2
2022/01/20 00:01:37;;;;;;;11.53;2.93;;;;;;;;;;5058412;28;20467;-82
2022/01/20 00:04:11;;;;;;;12.13;3.13;;;;;;;;;;5061007;28;20454;-82
2022/01/20 00:09:54;;;;;;;6.53;1.97;;;;;;;;;;5060133;28;20462;-86
2022/01/20 00:26:10;;;;;;;4.30;1.60;;;;;;;;;;5055820;28;20556;-85
2022/01/20 00:28:42;;;;;;;11.53;2.23;;;;;;;;;;5059081;28;20546;-82
2022/01/20 00:31:29;;;;;;;9.57;1.73;;;;;;;;;;5058729;28;20510;-83
2022/01/20 00:34:09;;;;;;;8.87;1.97;;;;;;;;;;5059309;28;20455;-82
2022/01/20 00:39:20;;;;;;;14.33;2.37;;;;;;;;;;5062196;28;20508;-83
2022/01/20 00:41:46;;;;;;;12.53;2.47;;;;;;;;;;5061026;28;20446;-81
2022/01/20 00:44:12;;;;;;;12.87;2.87;;;;;;;;;;5059981;28;20501;-83
2022/01/20 00:46:39;;;;;;;5.40;2.13;;;;;;;;;;5060652;28;20483;-83
2022/01/20 00:49:05;;;;;;;11.33;4.20;;;;;;;;;;5056031;28;20456;-83
2022/01/20 00:51:31;;;;;;;13.83;3.00;;;;;;;;;;5061715;28;20460;-83
2022/01/20 00:53:57;;;;;;;16.43;2.73;;;;;;;;;;5061458;28;20514;-83
2022/01/20 00:56:25;;;;;;;17.80;4.30;;;;;;;;;;5061936;28;20468;-84
2022/01/20 00:58:51;;;;;;;5.10;2.97;;;;;;;;;;5060615;28;20444;-83
2022/01/20 01:01:18;;;;;;;18.17;3.30;;;;;;;;;;5060453;28;20540;-84
2022/01/20 01:03:44;;;;;;;14.33;3.33;;;;;;;;;;5061475;28;20514;-84
2022/01/20 01:06:22;;;;;;;8.70;2.43;;;;;;;;;;5059230;23;20507;-79
2022/01/20 01:08:48;;;;;;;9.70;2.97;;;;;;;;;;5038245;28;20470;-79
2022/01/20 01:11:14;;;;;;;14.33;4.40;;;;;;;;;;5038761;28;20487;-79
2022/01/20 01:13:42;;;;;;;11.47;2.47;;;;;;;;;;5037306;28;20455;-79
2022/01/20 01:16:10;;;;;;;11.63;6.20;;;;;;;;;;5039401;28;20483;-79
2022/01/20 01:21:29;;;;;;;9.73;2.30;;;;;;;;;;5028176;28;21095;-78
2022/01/20 01:23:55;;;;;;;6.90;2.50;;;;;;;;;;5038485;28;20543;-77
2022/01/20 01:26:25;;;;;;;13.40;2.80;;;;;;;;;;5042796;28;20545;-79
2022/01/20 01:28:53;;;;;;;21.83;4.93;;;;;;;;;;5042629;28;20951;-78
2022/01/20 01:34:09;;;;;;;16.80;3.47;;;;;;;;;;5018045;28;20449;-79
2022/01/20 01:36:49;;;;;;;11.33;3.10;;;;;;;;;;5024148;28;20551;-79
2022/01/20 01:39:16;;;;;;;20.23;3.40;;;;;;;;;;5025691;28;20475;-79
2022/01/20 01:41:43;;;;;;;10.37;3.10;;;;;;;;;;5042592;28;20488;-75
2022/01/20 01:44:12;;;;;;;15.23;2.70;;;;;;;;;;5041963;28;20876;-75
2022/01/20 01:46:38;;;;;;;24.67;2.83;;;;;;;;;;5043278;28;20576;-78
2022/01/20 01:49:05;;;;;;;16.80;2.47;;;;;;;;;;5043415;28;20506;-78
2022/01/20 01:51:31;;;;;;;6.70;2.57;;;;;;;;;;5042482;28;20948;-79
2022/01/20 01:53:58;;;;;;;6.63;1.70;;;;;;;;;;5042695;28;20452;-79
2022/01/20 01:56:24;;;;;;;9.40;1.87;;;;;;;;;;5043272;28;20599;-79
2022/01/20 01:58:50;;;;;;;5.60;1.70;;;;;;;;;;5042406;28;20452;-78
2022/01/20 02:01:18;;;;;;;9.30;1.50;;;;;;;;;;5041095;28;21129;-79
2022/01/20 02:03:46;;;;;;;4.27;1.50;;;;;;;;;;5042682;28;20463;-80
2022/01/20 02:06:32;;;;;;;4.50;2.00;;;;;;;;;;5041405;28;20483;-79
2022/01/20 02:09:12;;;;;;;3.13;1.13;;;;;;;;;;5041948;28;20835;-78
2022/01/20 02:19:55;;;;;;;4.83;1.77;;;;;;;;;;5043661;28;20525;-79
2022/01/20 02:22:22;;;;;;;4.40;1.50;;;;;;;;;;5041833;28;20871;-79
2022/01/20 02:24:48;;;;;;;8.20;1.73;;;;;;;;;;5042571;28;20926;-79
2022/01/20 02:27:14;;;;;;;10.80;3.00;;;;;;;;;;5044001;28;20515;-79
2022/01/20 02:29:41;;;;;;;6.40;1.50;;;;;;;;;;5043914;28;20483;-78
2022/01/20 02:32:08;;;;;;;5.80;1.50;;;;;;;;;;5043374;28;20930;-78
2022/01/20 02:34:34;;;;;;;5.43;1.77;;;;;;;;;;5043432;28;20467;-79
2022/01/20 02:37:07;;;;;;;5.33;1.50;;;;;;;;;;5040482;28;20524;-79
2022/01/20 02:40:00;;;;;;;15.23;2.60;;;;;;;;;;5043464;28;21226;-78
2022/01/20 02:45:10;;;;;;;9.30;2.10;;;;;;;;;;5040739;28;20486;-79
2022/01/20 02:47:36;;;;;;;7.03;1.73;;;;;;;;;;5042282;28;20923;-79
2022/01/20 02:50:03;;;;;;;5.50;2.00;;;;;;;;;;5041681;28;21048;-79
2022/01/20 02:52:30;;;;;;;2.87;1.57;;;;;;;;;;5041873;28;20479;-79
2022/01/20 02:54:57;;;;;;;5.80;1.33;;;;;;;;;;5041261;28;20476;-79
2022/01/20 02:57:23;;;;;;;6.73;1.60;;;;;;;;;;5041207;28;20485;-79
2022/01/20 02:59:49;;;;;;;7.17;1.80;;;;;;;;;;5040014;28;20485;-79
2022/01/20 03:02:16;;;;;;;4.87;1.70;;;;;;;;;;5042325;28;20957;-79
2022/01/20 03:04:42;;;;;;;5.90;1.77;;;;;;;;;;5043653;28;20478;-77
2022/01/20 03:07:08;;;;;;;15.17;1.67;;;;;;;;;;5041944;28;20484;-79
2022/01/20 03:09:36;;;;;;;9.63;1.80;;;;;;;;;;5041947;28;20475;-78
2022/01/20 03:12:03;;;;;;;9.63;2.00;;;;;;;;;;5040758;28;20532;-79
2022/01/20 03:14:29;;;;;;;12.17;1.77;;;;;;;;;;5040255;28;20831;-79
2022/01/20 03:16:57;;;;;;;15.03;2.30;;;;;;;;;;5041411;28;20531;-78
2022/01/20 03:19:23;;;;;;;13.50;2.20;;;;;;;;;;5039063;28;20482;-79
2022/01/20 03:21:49;;;;;;;13.43;2.63;;;;;;;;;;5040693;28;20452;-79
2022/01/20 03:24:15;;;;;;;9.13;1.83;;;;;;;;;;5040839;28;20471;-79
2022/01/20 03:26:43;;;;;;;11.20;2.60;;;;;;;;;;5042657;28;20542;-76
2022/01/20 03:29:10;;;;;;;16.10;3.20;;;;;;;;;;5040323;28;20459;-79
2022/01/20 03:31:37;;;;;;;12.63;3.03;;;;;;;;;;5040968;28;20501;-79
2022/01/20 03:34:04;;;;;;;13.97;3.40;;;;;;;;;;5040864;28;20453;-78
2022/01/20 03:36:30;;;;;;;17.17;3.80;;;;;;;;;;5041379;28;20480;-79
2022/01/20 03:38:57;;;;;;;31.60;6.80;;;;;;;;;;5041313;28;20830;-78
2022/01/20 03:41:23;;;;;;;18.87;5.10;;;;;;;;;;5040727;28;20450;-79
2022/01/20 03:43:50;;;;;;;17.00;4.03;;;;;;;;;;5039991;28;20444;-78
2022/01/20 03:46:17;;;;;;;12.90;3.30;;;;;;;;;;5040919;28;20475;-79
2022/01/20 03:48:51;;;;;;;18.40;4.30;;;;;;;;;;5040501;28;20469;-77
2022/01/20 03:51:20;;;;;;;16.80;3.40;;;;;;;;;;5041077;28;20566;-78
2022/01/20 03:53:47;;;;;;;22.00;4.77;;;;;;;;;;5042136;28;20463;-79
2022/01/20 03:56:13;;;;;;;22.57;4.23;;;;;;;;;;5040920;28;20476;-79
2022/01/20 03:58:40;;;;;;;19.10;5.17;;;;;;;;;;5040105;28;20515;-78
2022/01/20 04:01:07;;;;;;;21.53;4.47;;;;;;;;;;5040225;28;20934;-79
2022/01/20 04:03:34;;;;;;;25.57;5.10;;;;;;;;;;5038174;28;20460;-78
2022/01/20 04:06:00;;;;;;;17.47;4.50;;;;;;;;;;5038215;28;20479;-78
2022/01/20 04:08:27;;;;;;;20.83;6.17;;;;;;;;;;5035650;28;20492;-77
2022/01/20 04:10:53;;;;;;;13.77;4.67;;;;;;;;;;5038603;28;20480;-78
2022/01/20 04:13:20;;;;;;;21.43;4.80;;;;;;;;;;5038009;28;20474;-78
2022/01/20 04:15:48;;;;;;;23.73;5.10;;;;;;;;;;5038811;28;20563;-79
2022/01/20 04:18:21;;;;;;;21.50;4.90;;;;;;;;;;5039366;28;20457;-79
2022/01/20 04:20:47;;;;;;;21.00;5.20;;;;;;;;;;5037489;28;20480;-78
2022/01/20 04:23:14;;;;;;;26.97;4.90;;;;;;;;;;5039893;28;20494;-79
2022/01/20 04:25:40;;;;;;;20.40;5.43;;;;;;;;;;5035022;28;20480;-78
2022/01/20 04:28:06;;;;;;;27.20;4.60;;;;;;;;;;5039333;28;20480;-78
2022/01/20 04:30:33;;;;;;;14.87;4.17;;;;;;;;;;5039243;28;20476;-79
2022/01/20 04:32:59;;;;;;;12.83;3.50;;;;;;;;;;5038802;28;20470;-79
2022/01/20 04:35:28;;;;;;;17.67;4.83;;;;;;;;;;5040036;28;21009;-79
2022/01/20 04:37:57;;;;;;;10.97;3.67;;;;;;;;;;5039990;28;20854;-78
2022/01/20 04:40:23;;;;;;;10.53;2.40;;;;;;;;;;5036511;28;20471;-79
2022/01/20 04:42:50;;;;;;;9.17;3.80;;;;;;;;;;5038455;28;20448;-79
2022/01/20 04:45:23;;;;;;;10.40;3.50;;;;;;;;;;5039175;28;21023;-79
2022/01/20 04:47:57;;;;;;;14.73;3.47;;;;;;;;;;5037141;28;20487;-79
2022/01/20 04:58:36;;;;;;;9.27;2.50;;;;;;;;;;5039188;28;20948;-78
2022/01/20 05:01:03;;;;;;;14.63;2.73;;;;;;;;;;5039482;28;21124;-79
2022/01/20 05:03:29;;;;;;;8.17;2.47;;;;;;;;;;5039481;28;20520;-78
2022/01/20 05:05:56;;;;;;;16.13;2.27;;;;;;;;;;5038830;28;20477;-78
2022/01/20 05:08:25;;;;;;;7.73;1.33;;;;;;;;;;5039646;28;20845;-78
2022/01/20 05:10:52;;;;;;;6.90;1.67;;;;;;;;;;5035670;28;20566;-78
2022/01/20 05:13:32;;;;;;;5.10;1.10;;;;;;;;;;5038378;28;20890;-78
2022/01/20 05:15:58;;;;;;;5.60;1.70;;;;;;;;;;5037586;28;21028;-79
2022/01/20 05:18:24;;;;;;;7.50;1.40;;;;;;;;;;5037564;28;20803;-78
2022/01/20 05:20:51;;;;;;;4.13;1.70;;;;;;;;;;5037867;28;20485;-79
2022/01/20 05:23:17;;;;;;;6.83;2.20;;;;;;;;;;5039136;28;20460;-78
2022/01/20 05:25:45;;;;;;;10.50;2.20;;;;;;;;;;5036874;28;20537;-78
2022/01/20 05:28:12;;;;;;;12.77;3.50;;;;;;;;;;5037806;28;20495;-78
2022/01/20 05:30:40;;;;;;;10.57;2.83;;;;;;;;;;5036580;28;20602;-77
2022/01/20 05:33:06;;;;;;;11.40;3.03;;;;;;;;;;5034051;28;20452;-78
2022/01/20 05:35:32;;;;;;;10.87;3.10;;;;;;;;;;5033773;28;20510;-78
2022/01/20 05:37:59;;;;;;;24.87;4.10;;;;;;;;;;5036726;28;20461;-78
2022/01/20 05:40:26;;;;;;;15.20;4.37;;;;;;;;;;5036504;28;21000;-78
2022/01/20 05:42:53;;;;;;;18.50;3.10;;;;;;;;;;5038048;28;20444;-79
2022/01/20 05:45:20;;;;;;;16.43;2.80;;;;;;;;;;5037816;28;20477;-78
2022/01/20 05:47:48;;;;;;;18.33;2.60;;;;;;;;;;5037527;28;20575;-78
2022/01/20 05:50:15;;;;;;;18.57;3.77;;;;;;;;;;5039300;28;20484;-76
2022/01/20 05:52:42;;;;;;;23.50;4.90;;;;;;;;;;5036628;28;20456;-77
2022/01/20 05:55:10;;;;;;;16.33;3.00;;;;;;;;;;5029354;28;20567;-79
2022/01/20 05:57:36;;;;;;;14.50;3.10;;;;;;;;;;5038268;28;20524;-79
2022/01/20 06:00:04;;;;;;;15.43;2.87;;;;;;;;;;5037627;28;20583;-78
2022/01/20 06:02:35;;;;;;;12.40;3.83;;;;;;;;;;5039214;28;20491;-78
2022/01/20 06:05:02;;;;;;;12.80;3.67;;;;;;;;;;5035649;28;20750;-79
2022/01/20 06:07:28;;;;;;;13.13;2.37;;;;;;;;;;5039054;28;20487;-79
2022/01/20 06:09:54;;;;;;;17.83;3.10;;;;;;;;;;5036230;28;20526;-79
2022/01/20 06:12:20;;;;;;;13.77;3.60;;;;;;;;;;5039785;28;20447;-79
2022/01/20 06:14:47;;;;;;;12.90;3.10;;;;;;;;;;5042512;28;20837;-79
2022/01/20 06:17:14;;;;;;;7.77;2.20;;;;;;;;;;5039970;28;20890;-79
2022/01/20 06:19:42;;;;;;;7.73;2.23;;;;;;;;;;5039664;28;20862;-78
2022/01/20 06:22:13;;;;;;;14.60;2.00;;;;;;;;;;5041280;28;20510;-78
2022/01/20 06:24:40;;;;;;;14.30;2.40;;;;;;;;;;5035544;28;20477;-78
2022/01/20 06:27:06;;;;;;;11.37;3.20;;;;;;;;;;5022682;28;20543;-78
2022/01/20 06:29:33;;;;;;;5.70;2.17;;;;;;;;;;5021766;28;20493;-79
2022/01/20 06:31:59;;;;;;;14.43;3.57;;;;;;;;;;5021196;28;20456;-79
2022/01/20 06:34:26;;;;;;;17.73;3.27;;;;;;;;;;5019779;28;20472;-78
2022/01/20 06:36:53;;;;;;;10.93;2.80;;;;;;;;;;5021898;28;20484;-78
2022/01/20 06:39:19;;;;;;;10.10;2.50;;;;;;;;;;5021385;28;20532;-79
2022/01/20 06:41:45;;;;;;;19.37;3.80;;;;;;;;;;5022825;28;20951;-79
2022/01/20 06:44:11;;;;;;;18.27;4.37;;;;;;;;;;5012395;28;20473;-79
2022/01/20 06:46:38;;;;;;;10.83;3.80;;;;;;;;;;5019842;28;20551;-79
2022/01/20 06:49:04;;;;;;;4.73;2.83;;;;;;;;;;5020462;28;20468;-78
2022/01/20 06:51:32;;;;;;;6.40;2.90;;;;;;;;;;5021437;28;20511;-78
2022/01/20 06:53:59;;;;;;;14.07;3.87;;;;;;;;;;5021797;28;20458;-79
2022/01/20 06:56:25;;;;;;;8.80;3.60;;;;;;;;;;5023102;28;20568;-79
2022/01/20 06:58:52;;;;;;;12.13;2.60;;;;;;;;;;5016871;28;20461;-78
2022/01/20 07:01:18;;;;;;;10.90;2.53;;;;;;;;;;5037195;28;20473;-79
2022/01/20 07:03:44;;;;;;;13.13;2.87;;;;;;;;;;5039086;28;20453;-79
2022/01/20 07:06:11;;;;;;;10.57;2.67;;;;;;;;;;5055378;22;20506;-81
2022/01/20 07:08:38;;;;;;;9.77;2.50;;;;;;;;;;5001389;28;20478;-83
2022/01/20 07:11:05;;;;;;;6.57;2.77;;;;;;;;;;5002848;28;20485;-84
2022/01/20 07:13:31;;;;;;;9.70;3.03;;;;;;;;;;5003337;28;21020;-81
2022/01/20 07:15:57;;;;;;;11.20;2.27;;;;;;;;;;5002092;28;20506;-83
2022/01/20 07:18:24;;;;;;;12.77;3.67;;;;;;;;;;5021097;28;20464;-83
2022/01/20 07:20:50;;;;;;;15.20;2.90;;;;;;;;;;5021645;28;20492;-82
2022/01/20 07:23:17;;;;;;;10.63;2.30;;;;;;;;;;5020737;28;20465;-83
2022/01/20 07:25:44;;;;;;;8.10;2.03;;;;;;;;;;5018836;28;20480;-83
2022/01/20 07:28:10;;;;;;;13.60;1.80;;;;;;;;;;5020801;28;20496;-83
2022/01/20 07:30:37;;;;;;;10.17;2.80;;;;;;;;;;5020601;28;20473;-83
2022/01/20 07:33:05;;;;;;;12.57;2.30;;;;;;;;;;5023822;28;20480;-84
2022/01/20 07:35:31;;;;;;;9.43;2.40;;;;;;;;;;5021941;28;21025;-83
2022/01/20 07:37:57;;;;;;;12.40;2.40;;;;;;;;;;5021762;28;20476;-84
2022/01/20 07:40:24;;;;;;;7.30;1.80;;;;;;;;;;5015649;28;20489;-84
2022/01/20 07:42:52;;;;;;;16.50;2.50;;;;;;;;;;5020346;28;20460;-84
2022/01/20 07:45:19;;;;;;;14.57;3.57;;;;;;;;;;5019659;28;20468;-82
2022/01/20 07:47:46;;;;;;;10.90;2.20;;;;;;;;;;5021927;28;20532;-82
2022/01/20 07:50:13;;;;;;;5.13;1.93;;;;;;;;;;5020852;28;20465;-83
2022/01/20 07:52:39;;;;;;;12.60;2.27;;;;;;;;;;5021641;28;20453;-82
2022/01/20 07:55:06;;;;;;;19.27;3.60;;;;;;;;;;5022320;28;20478;-83
2022/01/20 07:57:32;;;;;;;9.73;3.50;;;;;;;;;;5017480;28;20515;-83
2022/01/20 08:00:00;;;;;;;13.33;2.80;;;;;;;;;;5020162;28;20474;-84
2022/01/20 08:02:26;;;;;;;18.67;3.50;;;;;;;;;;5012947;28;20488;-84
2022/01/20 08:04:53;;;;;;;11.73;2.73;;;;;;;;;;5019524;28;20476;-84
2022/01/20 08:07:20;;;;;;;14.13;2.97;;;;;;;;;;5018331;28;20543;-83
2022/01/20 08:09:50;;;;;;;9.83;3.53;;;;;;;;;;5015694;28;20504;-84
2022/01/20 08:12:16;;;;;;;16.20;3.80;;;;;;;;;;5017788;28;20471;-83
2022/01/20 08:14:42;;;;;;;13.17;4.47;;;;;;;;;;5019985;28;21005;-82
2022/01/20 08:17:10;;;;;;;6.33;2.13;;;;;;;;;;5016470;28;20473;-83
2022/01/20 08:19:36;;;;;;;7.63;2.80;;;;;;;;;;5018133;28;20473;-85
2022/01/20 08:22:03;;;;;;;10.30;2.90;;;;;;;;;;5016704;28;20464;-84
2022/01/20 08:24:29;;;;;;;23.93;3.83;;;;;;;;;;5019476;28;20460;-85
2022/01/20 08:26:55;;;;;;;24.00;3.53;;;;;;;;;;5015733;28;20473;-84
2022/01/20 08:29:22;;;;;;;21.63;4.33;;;;;;;;;;5016370;28;20499;-83
2022/01/20 08:31:48;;;;;;;15.80;2.73;;;;;;;;;;5020090;28;20457;-83
2022/01/20 08:34:16;;;;;;;15.73;3.37;;;;;;;;;;5018540;28;20492;-82
2022/01/20 08:36:44;;;;;;;12.30;2.17;;;;;;;;;;5015588;28;20565;-81
2022/01/20 08:41:54;;;;;;;10.13;2.40;;;;;;;;;;5011107;28;20464;-83
2022/01/20 08:44:20;;;;;;;9.73;2.33;;;;;;;;;;5019692;28;20473;-84
2022/01/20 08:46:46;;;;;;;7.93;2.10;;;;;;;;;;5018047;28;20483;-84
2022/01/20 08:49:13;;;;;;;15.93;3.37;;;;;;;;;;5020226;28;20484;-84
2022/01/20 08:51:41;;;;;;;6.97;2.57;;;;;;;;;;5019341;28;20518;-85
2022/01/20 08:54:07;;;;;;;13.40;2.50;;;;;;;;;;5019524;28;20453;-85
2022/01/20 08:56:34;;;;;;;11.40;3.20;;;;;;;;;;5021333;28;21023;-84
2022/01/20 08:59:01;;;;;;;7.80;1.87;;;;;;;;;;5020233;28;21018;-84
2022/01/20 09:01:28;;;;;;;5.00;2.10;;;;;;;;;;5017952;28;20955;-82
2022/01/20 09:03:55;;;;;;;11.97;2.00;;;;;;;;;;5018261;28;20449;-83
2022/01/20 09:06:21;;;;;;;16.33;2.30;;;;;;;;;;5020516;28;20481;-81
2022/01/20 09:08:49;;;;;;;6.30;1.40;;;;;;;;;;5019331;28;20495;-84
2022/01/20 09:11:18;;;;;;;8.87;2.70;;;;;;;;;;5020966;28;20481;-84
2022/01/20 09:16:28;;;;;;;10.20;1.73;;;;;;;;;;5021217;28;20480;-84
2022/01/20 09:18:55;;;;;;;7.83;1.83;;;;;;;;;;5020801;28;20445;-85
2022/01/20 09:21:23;;;;;;;9.43;2.70;;;;;;;;;;5020324;28;20465;-84
2022/01/20 09:23:51;;;;;;;8.23;3.27;;;;;;;;;;5020035;28;20452;-83
2022/01/20 09:26:17;;;;;;;12.63;2.63;;;;;;;;;;5020209;28;20515;-82
2022/01/20 09:28:43;;;;;;;10.90;3.43;;;;;;;;;;5020664;28;20493;-84
2022/01/20 09:31:10;;;;;;;10.80;2.97;;;;;;;;;;5019941;28;20526;-84
2022/01/20 09:33:36;;;;;;;13.30;4.17;;;;;;;;;;5019495;28;21180;-85
2022/01/20 09:36:07;;;;;;;10.60;2.93;;;;;;;;;;5019773;28;20484;-83
2022/01/20 09:38:33;;;;;;;20.63;3.20;;;;;;;;;;5020704;28;20503;-83
2022/01/20 09:41:02;;;;;;;16.53;2.90;;;;;;;;;;5022456;28;20489;-83
2022/01/20 09:43:28;;;;;;;16.30;3.27;;;;;;;;;;5020645;28;20460;-82
2022/01/20 09:45:55;;;;;;;6.90;2.77;;;;;;;;;;5023456;28;20476;-85
2022/01/20 09:48:21;;;;;;;15.73;2.60;;;;;;;;;;5023718;28;20505;-83
2022/01/20 09:50:48;;;;;;;8.63;2.90;;;;;;;;;;5022813;28;20481;-84
2022/01/20 09:53:14;;;;;;;7.27;2.40;;;;;;;;;;5024135;28;20884;-83
2022/01/20 09:55:41;;;;;;;13.37;2.80;;;;;;;;;;5025147;28;20488;-83
2022/01/20 09:58:09;;;;;;;12.63;2.83;;;;;;;;;;5023426;28;20487;-83
2022/01/20 10:00:35;;;;;;;13.60;2.53;;;;;;;;;;5024570;28;20567;-84
2022/01/20 10:03:05;;;;;;;13.40;2.33;;;;;;;;;;5019276;28;20481;-83
2022/01/20 10:05:33;;;;;;;13.43;3.50;;;;;;;;;;5023297;28;20467;-82
2022/01/20 10:08:00;;;;;;;17.80;4.83;;;;;;;;;;5022339;28;20489;-82
2022/01/20 10:10:36;;;;;;;13.17;2.60;;;;;;;;;;5021844;28;20497;-83
2022/01/20 10:13:04;;;;;;;13.73;5.20;;;;;;;;;;5022202;28;20473;-83
2022/01/20 10:15:31;;;;;;;22.40;3.40;;;;;;;;;;5020461;28;20461;-84
2022/01/20 10:18:03;;;;;;;14.70;4.30;;;;;;;;;;5022123;28;20538;-84
2022/01/20 10:20:30;;;;;;;14.83;3.47;;;;;;;;;;5020173;28;20465;-83
2022/01/20 10:22:57;;;;;;;16.93;3.43;;;;;;;;;;5022744;28;21061;-83
2022/01/20 10:25:24;;;;;;;14.17;3.57;;;;;;;;;;5022260;28;20457;-83
2022/01/20 10:27:52;;;;;;;9.37;3.40;;;;;;;;;;5022678;28;20512;-84
2022/01/20 10:30:18;;;;;;;13.23;3.00;;;;;;;;;;5025353;28;20499;-83
2022/01/20 10:32:47;;;;;;;10.27;2.83;;;;;;;;;;5024032;28;20481;-84
2022/01/20 10:35:14;;;;;;;6.20;2.03;;;;;;;;;;5023559;28;20979;-82
2022/01/20 10:37:41;;;;;;;12.73;2.53;;;;;;;;;;5023478;28;20481;-83
2022/01/20 10:40:10;;;;;;;12.00;3.13;;;;;;;;;;5021607;28;20462;-82
2022/01/20 10:42:37;;;;;;;7.23;2.73;;;;;;;;;;5022834;28;21045;-83
2022/01/20 10:45:04;;;;;;;8.70;2.40;;;;;;;;;;5024116;28;20459;-84
2022/01/20 10:47:31;;;;;;;14.80;2.90;;;;;;;;;;5023315;28;20554;-84
2022/01/20 10:50:08;;;;;;;17.53;2.87;;;;;;;;;;5024349;28;20492;-83
2022/01/20 10:52:35;;;;;;;13.77;2.30;;;;;;;;;;5021098;28;20472;-82
2022/01/20 10:55:02;;;;;;;5.90;1.47;;;;;;;;;;5025497;28;20587;-83
2022/01/20 10:57:29;;;;;;;12.57;2.23;;;;;;;;;;5025125;28;20484;-84
2022/01/20 10:59:57;;;;;;;5.80;1.70;;;;;;;;;;5028190;28;20464;-83
2022/01/20 11:02:27;;;;;;;4.87;1.33;;;;;;;;;;5024297;28;20457;-84
2022/01/20 11:04:54;;;;;;;7.97;2.00;;;;;;;;;;5025554;28;20468;-81
2022/01/20 11:07:22;;;;;;;5.50;1.43;;;;;;;;;;5025394;28;20480;-83
2022/01/20 11:09:55;;;;;;;6.53;2.00;;;;;;;;;;5025408;28;21079;-82
2022/01/20 11:12:21;;;;;;;4.33;1.90;;;;;;;;;;5030132;28;20457;-84
2022/01/20 11:14:49;;;;;;;12.10;2.47;;;;;;;;;;5025705;28;20755;-82
2022/01/20 11:17:19;;;;;;;13.27;2.17;;;;;;;;;;5026837;28;20478;-83
2022/01/20 11:19:46;;;;;;;9.43;2.73;;;;;;;;;;5025591;28;20472;-84
2022/01/20 11:22:14;;;;;;;15.67;2.17;;;;;;;;;;5026973;28;20887;-82
2022/01/20 11:24:43;;;;;;;21.53;4.27;;;;;;;;;;5027737;28;20481;-82
2022/01/20 11:27:11;;;;;;;7.60;2.30;;;;;;;;;;5027180;28;20495;-82
2022/01/20 11:29:39;;;;;;;10.60;2.20;;;;;;;;;;5026016;28;20472;-81
2022/01/20 11:32:15;;;;;;;14.87;2.70;;;;;;;;;;5023881;28;20511;-82
2022/01/20 11:34:41;;;;;;;11.80;2.20;;;;;;;;;;5023321;28;20531;-81
2022/01/20 11:37:08;;;;;;;5.70;1.87;;;;;;;;;;5024197;28;20489;-83
2022/01/20 11:39:35;;;;;;;10.40;2.67;;;;;;;;;;5021955;28;20505;-81
2022/01/20 11:42:03;;;;;;;9.03;1.67;;;;;;;;;;5022133;28;20532;-80
2022/01/20 11:44:30;;;;;;;15.67;1.90;;;;;;;;;;5021019;28;20541;-81
2022/01/20 11:47:05;;;;;;;8.23;1.90;;;;;;;;;;5022625;28;20477;-81
2022/01/20 11:49:35;;;;;;;5.47;2.17;;;;;;;;;;5024392;28;21055;-82
2022/01/20 11:52:01;;;;;;;8.00;2.10;;;;;;;;;;5024028;28;20448;-82
2022/01/20 11:54:28;;;;;;;4.30;1.83;;;;;;;;;;5022192;28;20500;-82
2022/01/20 11:57:06;;;;;;;9.97;1.80;;;;;;;;;;5025492;28;20523;-85
2022/01/20 11:59:35;;;;;;;7.63;1.97;;;;;;;;;;5022754;28;20476;-80
2022/01/20 12:02:02;;;;;;;7.87;2.50;;;;;;;;;;5023295;28;20675;-80
2022/01/20 12:04:31;;;;;;;7.63;2.03;;;;;;;;;;5021942;28;20478;-80
2022/01/20 12:06:57;;;;;;;14.43;3.17;;;;;;;;;;5022365;28;20481;-85
2022/01/20 12:09:28;;;;;;;12.40;2.97;;;;;;;;;;5021727;28;20993;-83
2022/01/20 12:11:54;;;;;;;6.70;2.47;;;;;;;;;;5023156;28;20449;-83
2022/01/20 12:14:32;;;;;;;10.80;2.30;;;;;;;;;;5023991;28;20478;-81
2022/01/20 12:17:03;;;;;;;20.10;2.83;;;;;;;;;;5024631;28;20501;-82
2022/01/20 12:19:30;;;;;;;14.23;2.20;;;;;;;;;;5021348;28;20474;-84
2022/01/20 12:21:56;;;;;;;13.87;2.80;;;;;;;;;;5023429;28;20497;-81
2022/01/20 12:24:22;;;;;;;9.27;2.87;;;;;;;;;;5020840;28;20485;-84
2022/01/20 12:26:49;;;;;;;14.20;2.40;;;;;;;;;;5022135;28;21064;-84
2022/01/20 12:29:15;;;;;;;6.37;2.67;;;;;;;;;;5022425;28;20469;-83
2022/01/20 12:31:47;;;;;;;7.23;2.17;;;;;;;;;;5015740;28;20538;-83
2022/01/20 12:34:14;;;;;;;10.43;2.20;;;;;;;;;;5019676;28;20480;-81
2022/01/20 12:36:40;;;;;;;12.93;4.13;;;;;;;;;;5021068;28;20556;-82
2022/01/20 12:39:07;;;;;;;13.93;3.20;;;;;;;;;;5019417;28;20523;-81
2022/01/20 12:41:33;;;;;;;16.60;3.53;;;;;;;;;;5022934;28;20460;-83
2022/01/20 12:44:04;;;;;;;11.30;2.90;;;;;;;;;;5020223;28;21009;-84
2022/01/20 12:46:32;;;;;;;13.80;3.33;;;;;;;;;;5019944;28;20477;-82
2022/01/20 12:49:01;;;;;;;14.33;3.10;;;;;;;;;;5020222;28;20503;-81
2022/01/20 12:51:34;;;;;;;5.00;1.97;;;;;;;;;;5019411;28;20993;-82
2022/01/20 12:54:04;;;;;;;12.50;1.83;;;;;;;;;;5016622;28;20492;-83
2022/01/20 12:56:32;;;;;;;8.97;1.93;;;;;;;;;;5020874;28;20473;-83
2022/01/20 12:58:58;;;;;;;6.63;1.37;;;;;;;;;;5020815;28;20488;-84
2022/01/20 13:01:24;;;;;;;4.83;1.43;;;;;;;;;;5022487;28;20446;-82
2022/01/20 13:03:51;;;;;;;3.73;1.20;;;;;;;;;;5017602;28;20481;-83
2022/01/20 13:06:23;;;;;;;8.37;1.50;;;;;;;;;;5021530;28;20459;-82
2022/01/20 13:08:56;;;;;;;7.80;2.40;;;;;;;;;;5016018;22;20505;-88
2022/01/20 13:11:28;;;;;;;4.23;1.50;;;;;;;;;;5003874;28;20482;-88
2022/01/20 13:13:55;;;;;;;4.20;1.40;;;;;;;;;;5007282;28;20584;-86
2022/01/20 13:16:21;;;;;;;4.27;1.77;;;;;;;;;;5017645;28;20451;-86
2022/01/20 13:18:52;;;;;;;6.80;2.50;;;;;;;;;;5019870;28;20477;-85
2022/01/20 13:21:19;;;;;;;16.40;2.40;;;;;;;;;;5019244;28;20449;-86
2022/01/20 13:23:58;;;;;;;8.53;2.17;;;;;;;;;;5018225;28;20484;-85
2022/01/20 13:26:25;;;;;;;16.87;2.60;;;;;;;;;;5016421;28;20453;-85
2022/01/20 13:28:58;;;;;;;8.17;3.03;;;;;;;;;;5018516;28;20544;-86
2022/01/20 13:31:25;;;;;;;7.47;2.00;;;;;;;;;;5020266;28;20485;-84
2022/01/20 13:33:51;;;;;;;10.77;3.00;;;;;;;;;;5021647;28;20480;-85
2022/01/20 13:36:20;;;;;;;11.50;2.73;;;;;;;;;;5021832;28;20936;-87
2022/01/20 13:38:49;;;;;;;16.70;4.17;;;;;;;;;;5017275;28;20480;-90
2022/01/20 13:41:18;;;;;;;11.57;3.83;;;;;;;;;;5023061;28;20608;-86
2022/01/20 13:46:29;;;;;;;21.90;3.40;;;;;;;;;;5018715;28;20445;-85
2022/01/20 13:49:06;;;;;;;8.73;2.90;;;;;;;;;;5012329;28;20481;-88
2022/01/20 13:51:32;;;;;;;8.70;2.33;;;;;;;;;;5014278;28;20477;-88
2022/01/20 13:54:00;;;;;;;12.07;2.80;;;;;;;;;;5016663;28;20476;-89
2022/01/20 13:56:26;;;;;;;9.10;2.93;;;;;;;;;;5019171;28;20453;-87
2022/01/20 13:59:01;;;;;;;4.40;1.20;;;;;;;;;;5019692;28;20832;-87
2022/01/20 14:01:28;;;;;;;2.00;1.07;;;;;;;;;;5017068;28;20829;-88
2022/01/20 14:03:54;;;;;;;1.80;0.87;;;;;;;;;;5021880;28;20719;-87
2022/01/20 14:06:20;;;;;;;4.23;0.90;;;;;;;;;;5024746;28;20456;-88
2022/01/20 14:08:48;;;;;;;3.93;0.90;;;;;;;;;;5019325;28;20506;-87
2022/01/20 14:11:16;;;;;;;4.80;1.60;;;;;;;;;;5020238;28;20572;-88
2022/01/20 14:13:43;;;;;;;8.80;1.20;;;;;;;;;;5019989;28;20488;-87
2022/01/20 14:16:09;;;;;;;7.60;1.33;;;;;;;;;;5018703;28;20472;-87
2022/01/20 14:18:42;;;;;;;4.93;2.03;;;;;;;;;;5015433;28;20470;-88
2022/01/20 14:21:08;;;;;;;3.57;1.50;;;;;;;;;;5018807;28;20801;-88
2022/01/20 14:23:38;;;;;;;11.93;3.10;;;;;;;;;;5021352;28;20472;-88
2022/01/20 14:26:05;;;;;;;11.67;2.50;;;;;;;;;;5018338;28;20474;-88
2022/01/20 14:28:33;;;;;;;8.93;2.50;;;;;;;;;;5018742;28;20507;-88
2022/01/20 14:30:59;;;;;;;10.13;1.87;;;;;;;;;;5019360;28;20492;-91
2022/01/20 14:33:26;;;;;;;6.20;2.53;;;;;;;;;;5021390;28;20488;-87
2022/01/20 14:35:52;;;;;;;8.43;2.00;;;;;;;;;;5027632;28;20445;-87
2022/01/20 14:38:18;;;;;;;13.70;2.87;;;;;;;;;;5023427;28;20472;-87
2022/01/20 14:40:45;;;;;;;17.87;2.83;;;;;;;;;;5023687;28;20441;-87
2022/01/20 14:43:11;;;;;;;10.20;2.40;;;;;;;;;;5022508;28;20484;-88
2022/01/20 14:45:39;;;;;;;5.90;2.20;;;;;;;;;;5022234;28;20450;-89
2022/01/20 14:48:05;;;;;;;6.50;2.47;;;;;;;;;;5022359;28;20469;-88
2022/01/20 14:50:32;;;;;;;6.20;1.93;;;;;;;;;;5020065;28;20482;-88
2022/01/20 14:52:58;;;;;;;9.43;2.30;;;;;;;;;;5022316;28;20848;-87
2022/01/20 14:55:24;;;;;;;7.43;2.60;;;;;;;;;;5024701;28;20453;-87
2022/01/20 14:57:51;;;;;;;15.50;2.20;;;;;;;;;;5019303;28;20489;-87
2022/01/20 15:00:18;;;;;;;6.03;2.10;;;;;;;;;;5021060;28;20437;-87
2022/01/20 15:02:47;;;;;;;5.60;1.60;;;;;;;;;;5026494;28;21041;-87
2022/01/20 15:05:15;;;;;;;6.30;2.83;;;;;;;;;;5024357;28;20551;-88
2022/01/20 15:07:41;;;;;;;8.07;2.13;;;;;;;;;;5023377;28;20463;-88
2022/01/20 15:10:08;;;;;;;7.53;1.80;;;;;;;;;;5022815;28;20477;-87
2022/01/20 15:12:36;;;;;;;6.40;2.10;;;;;;;;;;5024300;28;20456;-88
2022/01/20 15:15:03;;;;;;;5.37;2.20;;;;;;;;;;5024529;28;20458;-88
2022/01/20 15:17:30;;;;;;;20.00;2.40;;;;;;;;;;5023173;28;20451;-88
2022/01/20 15:19:57;;;;;;;11.43;1.87;;;;;;;;;;5020289;28;20490;-87
2022/01/20 15:22:24;;;;;;;13.93;2.20;;;;;;;;;;5022676;28;20456;-88
2022/01/20 15:24:50;;;;;;;12.97;2.10;;;;;;;;;;5022783;28;20467;-88
2022/01/20 15:27:16;;;;;;;9.53;2.53;;;;;;;;;;5026235;28;20456;-88
2022/01/20 15:29:42;;;;;;;12.73;3.03;;;;;;;;;;5017991;28;20468;-88
2022/01/20 15:32:09;;;;;;;11.47;2.43;;;;;;;;;;5022949;28;20488;-88